createdAt,value
2022-08-21T00:00:04.160Z,27.4
2022-08-21T00:01:03.880Z,27.4
2022-08-21T00:02:03.864Z,27.4
2022-08-21T00:03:03.891Z,27.4
2022-08-21T00:04:03.824Z,27.5
2022-08-21T00:05:03.819Z,27.4
2022-08-21T00:06:03.832Z,27.4
2022-08-21T00:07:03.811Z,27.4
2022-08-21T00:08:03.807Z,27.3
2022-08-21T00:09:06.480Z,27.3
2022-08-21T00:10:03.810Z,27.3
2022-08-21T00:11:03.838Z,27.2
2022-08-21T00:12:03.822Z,27.2
2022-08-21T00:13:03.811Z,27.1
2022-08-21T00:14:03.799Z,27.0
2022-08-21T00:15:03.823Z,27.0
2022-08-21T00:16:03.818Z,26.9
2022-08-21T00:17:03.851Z,26.9
2022-08-21T00:18:03.804Z,26.9
2022-08-21T00:19:03.816Z,26.9
2022-08-21T00:20:03.818Z,26.9
2022-08-21T00:21:03.823Z,26.9
2022-08-21T00:22:03.836Z,27.0
2022-08-21T00:23:03.845Z,27.0
2022-08-21T00:24:03.798Z,27.0
2022-08-21T00:25:03.832Z,27.0
2022-08-21T00:26:03.811Z,27.0
2022-08-21T00:27:03.818Z,27.0
2022-08-21T00:28:03.819Z,27.0
2022-08-21T00:29:03.850Z,27.0
2022-08-21T00:30:03.822Z,27.0
2022-08-21T00:31:03.874Z,27.0
2022-08-21T00:32:03.839Z,27.0
2022-08-21T00:33:03.826Z,27.1
2022-08-21T00:34:03.826Z,27.0
2022-08-21T00:35:03.835Z,27.0
2022-08-21T00:36:03.830Z,27.0
2022-08-21T00:37:03.834Z,27.0
2022-08-21T00:38:03.832Z,27.0
2022-08-21T00:39:03.815Z,27.0
2022-08-21T00:40:03.862Z,27.0
2022-08-21T00:41:29.849Z,27.0
2022-08-21T00:42:03.874Z,26.9
2022-08-21T00:43:03.819Z,26.9
2022-08-21T00:44:03.829Z,26.9
2022-08-21T00:45:03.840Z,26.9
2022-08-21T00:46:03.825Z,26.9
2022-08-21T00:47:03.857Z,26.9
2022-08-21T00:48:05.388Z,26.9
2022-08-21T00:49:03.827Z,26.8
2022-08-21T00:50:03.822Z,26.7
2022-08-21T00:51:03.831Z,26.7
2022-08-21T00:52:03.875Z,26.7
2022-08-21T00:53:03.852Z,26.7
2022-08-21T00:54:03.816Z,26.7
2022-08-21T00:55:03.817Z,26.6
2022-08-21T00:56:03.809Z,26.4
2022-08-21T00:57:03.829Z,26.3
2022-08-21T00:58:03.824Z,26.2
2022-08-21T00:59:03.832Z,26.1
2022-08-21T01:00:03.861Z,26.2
2022-08-21T01:01:08.093Z,26.2
2022-08-21T01:02:04.023Z,26.2
2022-08-21T01:03:07.444Z,26.2
2022-08-21T01:04:04.026Z,26.2
2022-08-21T01:05:03.845Z,26.3
2022-08-21T01:06:03.867Z,26.2
2022-08-21T01:07:03.837Z,26.1
2022-08-21T01:08:03.824Z,26.1
2022-08-21T01:09:03.859Z,26.1
2022-08-21T01:10:03.889Z,26.0
2022-08-21T01:11:03.873Z,26.0
2022-08-21T01:12:03.819Z,26.0
2022-08-21T01:13:03.834Z,25.9
2022-08-21T01:14:03.837Z,25.8
2022-08-21T01:15:03.832Z,25.8
2022-08-21T01:16:03.837Z,25.7
2022-08-21T01:17:04.566Z,25.7
2022-08-21T01:18:03.828Z,25.7
2022-08-21T01:19:03.852Z,25.7
2022-08-21T01:20:03.920Z,25.7
2022-08-21T01:21:04.933Z,25.6
2022-08-21T01:22:03.899Z,25.6
2022-08-21T01:23:03.881Z,25.6
2022-08-21T01:24:03.831Z,25.6
2022-08-21T01:25:03.875Z,25.6
2022-08-21T01:26:03.874Z,25.6
2022-08-21T01:27:03.833Z,25.5
2022-08-21T01:28:03.842Z,25.5
2022-08-21T01:29:03.880Z,25.6
2022-08-21T01:30:06.393Z,25.6
2022-08-21T01:31:03.836Z,25.6
2022-08-21T01:32:03.826Z,25.6
2022-08-21T01:33:03.826Z,25.7
2022-08-21T01:34:03.887Z,25.6
2022-08-21T01:35:03.885Z,25.6
2022-08-21T01:36:03.832Z,25.5
2022-08-21T01:37:03.933Z,25.5
2022-08-21T01:38:03.851Z,25.6
2022-08-21T01:39:03.841Z,25.6
2022-08-21T01:40:03.891Z,25.6
2022-08-21T01:41:03.885Z,25.6
2022-08-21T01:42:03.823Z,25.6
2022-08-21T01:43:03.831Z,25.7
2022-08-21T01:44:03.839Z,25.7
2022-08-21T01:45:03.852Z,25.6
2022-08-21T01:46:03.853Z,25.7
2022-08-21T01:47:03.855Z,25.7
2022-08-21T01:48:03.826Z,25.7
2022-08-21T01:49:03.845Z,25.7
2022-08-21T01:50:03.866Z,25.8
2022-08-21T01:51:03.849Z,25.8
2022-08-21T01:52:03.841Z,25.7
2022-08-21T01:53:03.848Z,25.8
2022-08-21T01:54:03.897Z,25.8
2022-08-21T01:55:03.859Z,25.8
2022-08-21T01:56:03.986Z,25.8
2022-08-21T01:57:50.514Z,25.5
2022-08-21T01:58:04.237Z,25.6
2022-08-21T01:59:04.242Z,25.7
2022-08-21T02:00:04.230Z,25.7
2022-08-21T02:01:04.258Z,25.7
2022-08-21T02:02:06.274Z,25.7
2022-08-21T02:03:04.271Z,25.7
2022-08-21T02:04:04.240Z,25.7
2022-08-21T02:05:04.235Z,25.7
2022-08-21T02:06:04.240Z,25.7
2022-08-21T02:07:04.247Z,25.7
2022-08-21T02:08:04.231Z,25.7
2022-08-21T02:09:04.277Z,25.7
2022-08-21T02:10:04.236Z,25.7
2022-08-21T02:11:04.309Z,25.7
2022-08-21T02:12:04.249Z,25.6
2022-08-21T02:13:04.250Z,25.6
2022-08-21T02:14:04.261Z,25.7
2022-08-21T02:15:04.255Z,25.7
2022-08-21T02:16:04.229Z,25.7
2022-08-21T02:17:08.793Z,25.7
2022-08-21T02:18:04.239Z,25.7
2022-08-21T02:19:04.253Z,25.7
2022-08-21T02:20:04.237Z,25.7
2022-08-21T02:21:04.246Z,25.7
2022-08-21T02:22:04.264Z,25.7
2022-08-21T02:23:04.289Z,25.7
2022-08-21T02:24:04.254Z,25.7
2022-08-21T02:25:04.241Z,25.7
2022-08-21T02:26:04.253Z,25.6
2022-08-21T02:27:04.286Z,25.6
2022-08-21T02:28:04.240Z,25.6
2022-08-21T02:29:04.536Z,25.6
2022-08-21T02:30:04.242Z,25.5
2022-08-21T02:31:04.253Z,25.5
2022-08-21T02:32:04.236Z,25.5
2022-08-21T02:33:04.239Z,25.4
2022-08-21T02:34:04.238Z,25.4
2022-08-21T02:35:04.249Z,25.3
2022-08-21T02:36:04.246Z,25.3
2022-08-21T02:37:04.257Z,25.3
2022-08-21T02:38:04.245Z,25.2
2022-08-21T02:39:04.305Z,25.2
2022-08-21T02:40:04.312Z,25.2
2022-08-21T02:41:04.287Z,25.2
2022-08-21T02:42:04.233Z,25.2
2022-08-21T02:43:04.239Z,25.2
2022-08-21T02:44:04.263Z,25.1
2022-08-21T02:45:04.247Z,25.1
2022-08-21T02:46:04.258Z,25.1
2022-08-21T02:47:04.280Z,25.1
2022-08-21T02:48:04.362Z,25.2
2022-08-21T02:49:04.253Z,25.2
2022-08-21T02:50:04.340Z,25.2
2022-08-21T02:51:04.252Z,25.2
2022-08-21T02:52:04.261Z,25.2
2022-08-21T02:53:04.252Z,25.2
2022-08-21T02:54:04.249Z,25.2
2022-08-21T02:55:04.352Z,25.2
2022-08-21T02:56:04.280Z,25.2
2022-08-21T02:57:04.316Z,25.1
2022-08-21T02:58:04.242Z,25.1
2022-08-21T02:59:04.244Z,25.0
2022-08-21T03:00:04.253Z,25.0
2022-08-21T03:01:04.285Z,25.0
2022-08-21T03:02:04.376Z,25.1
2022-08-21T03:03:04.255Z,25.1
2022-08-21T03:04:04.282Z,25.1
2022-08-21T03:05:04.254Z,25.1
2022-08-21T03:06:04.254Z,25.0
2022-08-21T03:07:04.290Z,25.0
2022-08-21T03:08:04.245Z,24.9
2022-08-21T03:09:04.252Z,24.9
2022-08-21T03:10:04.249Z,24.8
2022-08-21T03:11:04.254Z,24.8
2022-08-21T03:12:04.271Z,24.8
2022-08-21T03:13:04.270Z,24.8
2022-08-21T03:14:04.287Z,24.8
2022-08-21T03:15:04.255Z,24.8
2022-08-21T03:16:04.268Z,24.9
2022-08-21T03:17:04.263Z,24.8
2022-08-21T03:18:04.267Z,24.8
2022-08-21T03:19:04.318Z,24.8
2022-08-21T03:20:04.251Z,24.8
2022-08-21T03:21:04.258Z,24.8
2022-08-21T03:22:04.249Z,24.8
2022-08-21T03:23:04.269Z,24.8
2022-08-21T03:24:04.490Z,24.8
2022-08-21T03:25:06.352Z,24.8
2022-08-21T03:26:04.269Z,24.8
2022-08-21T03:27:05.650Z,24.8
2022-08-21T03:28:04.532Z,24.8
2022-08-21T03:29:04.392Z,24.9
2022-08-21T03:30:04.356Z,24.9
2022-08-21T03:31:04.360Z,24.9
2022-08-21T03:32:04.355Z,24.8
2022-08-21T03:33:04.389Z,24.7
2022-08-21T03:34:04.288Z,24.6
2022-08-21T03:35:05.901Z,24.6
2022-08-21T03:36:04.262Z,24.6
2022-08-21T03:37:04.266Z,24.6
2022-08-21T03:38:04.265Z,24.6
2022-08-21T03:39:04.269Z,24.6
2022-08-21T03:40:04.347Z,24.5
2022-08-21T03:41:04.268Z,24.5
2022-08-21T03:42:04.260Z,24.5
2022-08-21T03:43:04.280Z,24.5
2022-08-21T03:44:04.352Z,24.5
2022-08-21T03:45:04.278Z,24.5
2022-08-21T03:46:04.260Z,24.5
2022-08-21T03:47:04.274Z,24.5
2022-08-21T03:48:04.292Z,24.5
2022-08-21T03:49:04.313Z,24.6
2022-08-21T03:50:04.266Z,24.6
2022-08-21T03:51:04.264Z,24.5
2022-08-21T03:52:04.259Z,24.5
2022-08-21T03:53:04.273Z,24.6
2022-08-21T03:54:04.301Z,24.6
2022-08-21T03:55:04.273Z,24.6
2022-08-21T03:56:04.265Z,24.6
2022-08-21T03:57:04.273Z,24.6
2022-08-21T03:58:16.154Z,24.6
2022-08-21T03:59:04.275Z,24.6
2022-08-21T04:00:04.334Z,24.6
2022-08-21T04:01:04.264Z,24.6
2022-08-21T04:02:04.310Z,24.5
2022-08-21T04:03:04.285Z,24.4
2022-08-21T04:04:05.507Z,24.3
2022-08-21T04:05:04.329Z,24.3
2022-08-21T04:06:04.286Z,24.3
2022-08-21T04:07:04.286Z,24.2
2022-08-21T04:08:04.310Z,24.2
2022-08-21T04:09:04.278Z,24.2
2022-08-21T04:10:04.277Z,24.3
2022-08-21T04:11:04.279Z,24.3
2022-08-21T04:12:04.278Z,24.3
2022-08-21T04:13:05.312Z,24.4
2022-08-21T04:14:30.696Z,24.3
2022-08-21T04:15:04.642Z,24.5
2022-08-21T04:16:04.446Z,24.5
2022-08-21T04:17:04.438Z,24.5
2022-08-21T04:18:04.440Z,24.5
2022-08-21T04:19:04.446Z,24.5
2022-08-21T04:20:04.447Z,24.5
2022-08-21T04:21:04.445Z,24.5
2022-08-21T04:22:04.446Z,24.5
2022-08-21T04:23:04.448Z,24.5
2022-08-21T04:24:04.632Z,24.4
2022-08-21T04:25:04.442Z,24.4
2022-08-21T04:26:04.433Z,24.4
2022-08-21T04:27:04.434Z,24.3
2022-08-21T04:28:04.489Z,24.2
2022-08-21T04:29:04.442Z,24.1
2022-08-21T04:30:04.457Z,24.0
2022-08-21T04:31:04.453Z,24.0
2022-08-21T04:32:04.443Z,24.0
2022-08-21T04:33:11.138Z,23.9
2022-08-21T04:34:03.839Z,23.9
2022-08-21T04:35:03.868Z,23.9
2022-08-21T04:36:03.852Z,23.9
2022-08-21T04:37:03.859Z,23.9
2022-08-21T04:38:10.547Z,23.9
2022-08-21T04:39:10.967Z,24.0
2022-08-21T04:40:11.289Z,24.0
2022-08-21T04:41:04.219Z,24.1
2022-08-21T04:42:04.225Z,24.2
2022-08-21T04:43:04.226Z,24.2
2022-08-21T04:44:04.215Z,24.2
2022-08-21T04:45:05.241Z,24.2
2022-08-21T04:46:04.240Z,24.2
2022-08-21T04:47:04.262Z,24.0
2022-08-21T04:48:04.215Z,23.9
2022-08-21T04:49:04.232Z,23.9
2022-08-21T04:50:04.444Z,23.8
2022-08-21T04:51:04.299Z,23.8
2022-08-21T04:52:04.244Z,23.8
2022-08-21T04:53:04.216Z,23.7
2022-08-21T04:54:04.225Z,23.7
2022-08-21T04:55:04.221Z,23.7
2022-08-21T04:56:04.222Z,23.7
2022-08-21T04:57:04.237Z,23.7
2022-08-21T04:58:04.242Z,23.7
2022-08-21T04:59:04.245Z,23.7
2022-08-21T05:00:04.258Z,23.7
2022-08-21T05:01:04.222Z,23.7
2022-08-21T05:02:04.291Z,23.6
2022-08-21T05:03:04.232Z,23.6
2022-08-21T05:04:04.232Z,23.6
2022-08-21T05:05:04.212Z,23.6
2022-08-21T05:06:04.244Z,23.6
2022-08-21T05:07:04.294Z,23.6
2022-08-21T05:08:04.396Z,23.6
2022-08-21T05:09:04.215Z,23.6
2022-08-21T05:10:04.226Z,23.5
2022-08-21T05:11:04.231Z,23.6
2022-08-21T05:12:04.225Z,23.6
2022-08-21T05:13:04.686Z,23.6
2022-08-21T05:14:04.241Z,23.6
2022-08-21T05:15:04.218Z,23.6
2022-08-21T05:16:04.237Z,23.6
2022-08-21T05:17:04.238Z,23.6
2022-08-21T05:18:04.226Z,23.6
2022-08-21T05:19:04.234Z,23.6
2022-08-21T05:20:04.232Z,23.6
2022-08-21T05:21:04.284Z,23.7
2022-08-21T05:22:04.228Z,23.6
2022-08-21T05:23:04.244Z,23.6
2022-08-21T05:24:04.233Z,23.7
2022-08-21T05:25:04.226Z,23.6
2022-08-21T05:27:54.297Z,23.3
2022-08-21T05:28:04.126Z,23.3
2022-08-21T05:29:04.036Z,23.4
2022-08-21T05:30:04.047Z,23.5
2022-08-21T05:31:04.054Z,23.5
2022-08-21T05:32:04.054Z,23.5
2022-08-21T05:33:04.052Z,23.5
2022-08-21T05:34:04.066Z,23.5
2022-08-21T05:35:04.042Z,23.6
2022-08-21T05:36:04.054Z,23.7
2022-08-21T05:37:07.479Z,23.8
2022-08-21T05:38:04.061Z,23.7
2022-08-21T05:39:04.055Z,23.7
2022-08-21T05:40:21.855Z,23.7
2022-08-21T05:41:04.109Z,23.7
2022-08-21T05:42:04.057Z,23.7
2022-08-21T05:43:04.041Z,23.7
2022-08-21T05:44:04.047Z,23.7
2022-08-21T05:45:04.045Z,23.7
2022-08-21T05:46:04.075Z,23.7
2022-08-21T05:47:04.055Z,23.7
2022-08-21T05:48:04.088Z,23.7
2022-08-21T05:49:04.062Z,23.7
2022-08-21T05:50:04.173Z,23.6
2022-08-21T05:51:04.046Z,23.6
2022-08-21T05:52:04.058Z,23.6
2022-08-21T05:53:07.057Z,23.5
2022-08-21T05:54:04.114Z,23.6
2022-08-21T05:55:04.045Z,23.6
2022-08-21T05:56:04.060Z,23.7
2022-08-21T05:57:04.067Z,23.7
2022-08-21T05:58:04.064Z,23.6
2022-08-21T05:59:04.080Z,23.6
2022-08-21T06:00:04.107Z,23.6
2022-08-21T06:01:04.136Z,23.6
2022-08-21T06:02:05.784Z,23.6
2022-08-21T06:03:04.055Z,23.6
2022-08-21T06:04:04.078Z,23.7
2022-08-21T06:05:04.057Z,23.6
2022-08-21T06:06:04.064Z,23.6
2022-08-21T06:07:04.058Z,23.6
2022-08-21T06:08:04.169Z,23.5
2022-08-21T06:09:04.102Z,23.5
2022-08-21T06:10:04.071Z,23.6
2022-08-21T06:11:04.060Z,23.7
2022-08-21T06:12:04.085Z,23.6
2022-08-21T06:13:04.074Z,23.6
2022-08-21T06:14:04.068Z,23.6
2022-08-21T06:15:04.086Z,23.5
2022-08-21T06:16:04.055Z,23.5
2022-08-21T06:17:04.062Z,23.5
2022-08-21T06:18:04.062Z,23.5
2022-08-21T06:19:04.060Z,23.5
2022-08-21T06:20:04.071Z,23.5
2022-08-21T06:21:04.052Z,23.5
2022-08-21T06:22:04.065Z,23.5
2022-08-21T06:23:04.062Z,23.5
2022-08-21T06:24:04.078Z,23.5
2022-08-21T06:25:04.081Z,23.5
2022-08-21T06:26:04.064Z,23.6
2022-08-21T06:27:04.064Z,23.6
2022-08-21T06:28:04.076Z,23.6
2022-08-21T06:29:04.082Z,23.6
2022-08-21T06:30:04.086Z,23.6
2022-08-21T06:31:04.059Z,23.6
2022-08-21T06:32:04.064Z,23.6
2022-08-21T06:33:04.065Z,23.5
2022-08-21T06:34:04.068Z,23.5
2022-08-21T06:35:04.071Z,23.5
2022-08-21T06:36:04.085Z,23.6
2022-08-21T06:37:04.097Z,23.6
2022-08-21T06:38:04.082Z,23.6
2022-08-21T06:39:12.301Z,23.7
2022-08-21T06:40:04.131Z,23.7
2022-08-21T06:41:04.287Z,23.7
2022-08-21T06:42:04.136Z,23.7
2022-08-21T06:43:04.071Z,23.6
2022-08-21T06:45:36.674Z,23.4
2022-08-21T06:46:04.667Z,23.6
2022-08-21T06:47:04.719Z,23.6
2022-08-21T06:48:04.683Z,23.7
2022-08-21T06:49:04.668Z,23.7
2022-08-21T06:50:04.752Z,23.7
2022-08-21T06:51:04.698Z,23.6
2022-08-21T06:52:04.683Z,23.5
2022-08-21T06:53:04.682Z,23.5
2022-08-21T06:54:04.677Z,23.5
2022-08-21T06:55:04.694Z,23.5
2022-08-21T06:56:04.684Z,23.6
2022-08-21T06:57:04.681Z,23.7
2022-08-21T06:58:04.687Z,23.7
2022-08-21T06:59:04.681Z,23.7
2022-08-21T07:00:04.690Z,23.8
2022-08-21T07:01:04.719Z,23.8
2022-08-21T07:02:04.692Z,23.8
2022-08-21T07:03:04.683Z,23.8
2022-08-21T07:04:04.682Z,23.9
2022-08-21T07:05:11.793Z,23.8
2022-08-21T07:06:04.692Z,23.9
2022-08-21T07:07:04.673Z,23.9
2022-08-21T07:08:04.681Z,23.9
2022-08-21T07:09:04.686Z,23.9
2022-08-21T07:10:04.677Z,23.8
2022-08-21T07:11:04.684Z,23.8
2022-08-21T07:12:04.701Z,23.8
2022-08-21T07:13:04.927Z,23.9
2022-08-21T07:14:04.694Z,23.9
2022-08-21T07:15:04.677Z,24.0
2022-08-21T07:16:04.709Z,24.0
2022-08-21T07:17:04.674Z,24.0
2022-08-21T07:18:04.695Z,24.0
2022-08-21T07:19:04.741Z,24.0
2022-08-21T07:20:04.705Z,24.0
2022-08-21T07:21:04.691Z,24.0
2022-08-21T07:22:04.707Z,24.1
2022-08-21T07:23:04.684Z,24.1
2022-08-21T07:24:04.697Z,24.1
2022-08-21T07:25:04.699Z,24.1
2022-08-21T07:26:04.697Z,24.1
2022-08-21T07:27:09.442Z,24.0
2022-08-21T07:28:04.695Z,24.0
2022-08-21T07:29:04.755Z,24.0
2022-08-21T07:30:04.690Z,24.1
2022-08-21T07:31:04.693Z,24.1
2022-08-21T07:32:04.688Z,24.1
2022-08-21T07:33:04.687Z,24.1
2022-08-21T07:34:04.700Z,24.1
2022-08-21T07:35:04.704Z,24.0
2022-08-21T07:36:04.692Z,24.0
2022-08-21T07:37:06.066Z,24.1
2022-08-21T07:38:04.901Z,24.1
2022-08-21T07:39:04.731Z,24.1
2022-08-21T07:40:04.798Z,24.0
2022-08-21T07:41:04.684Z,24.1
2022-08-21T07:42:08.216Z,24.1
2022-08-21T07:43:04.688Z,24.1
2022-08-21T07:45:36.104Z,23.8
2022-08-21T07:46:04.044Z,23.9
2022-08-21T07:47:06.308Z,24.0
2022-08-21T07:48:03.806Z,24.0
2022-08-21T07:49:03.896Z,24.1
2022-08-21T07:50:03.804Z,24.1
2022-08-21T07:51:03.834Z,24.2
2022-08-21T07:52:03.811Z,24.2
2022-08-21T07:53:03.852Z,24.3
2022-08-21T07:54:03.855Z,24.3
2022-08-21T07:55:06.296Z,24.3
2022-08-21T07:56:04.730Z,24.3
2022-08-21T07:57:03.810Z,24.3
2022-08-21T07:58:03.852Z,24.3
2022-08-21T07:59:03.841Z,24.4
2022-08-21T08:00:03.839Z,24.4
2022-08-21T08:01:03.876Z,24.5
2022-08-21T08:02:03.817Z,24.5
2022-08-21T08:03:03.814Z,24.5
2022-08-21T08:04:03.811Z,24.5
2022-08-21T08:05:03.835Z,24.5
2022-08-21T08:06:03.809Z,24.5
2022-08-21T08:07:03.802Z,24.5
2022-08-21T08:08:03.842Z,24.5
2022-08-21T08:09:03.800Z,24.6
2022-08-21T08:10:03.917Z,24.5
2022-08-21T08:11:03.831Z,24.5
2022-08-21T08:12:04.050Z,24.6
2022-08-21T08:13:03.820Z,24.6
2022-08-21T08:14:03.808Z,24.7
2022-08-21T08:15:03.834Z,24.7
2022-08-21T08:16:03.806Z,24.8
2022-08-21T08:17:03.811Z,24.8
2022-08-21T08:18:03.818Z,24.8
2022-08-21T08:19:03.830Z,24.8
2022-08-21T08:20:03.948Z,24.8
2022-08-21T08:21:03.877Z,24.8
2022-08-21T08:22:03.803Z,24.8
2022-08-21T08:23:03.915Z,24.9
2022-08-21T08:24:19.340Z,24.9
2022-08-21T08:25:08.765Z,24.9
2022-08-21T08:26:03.817Z,24.9
2022-08-21T08:27:03.831Z,24.9
2022-08-21T08:28:03.810Z,25.0
2022-08-21T08:29:03.815Z,24.9
2022-08-21T08:30:03.821Z,25.0
2022-08-21T08:31:04.022Z,25.0
2022-08-21T08:32:03.819Z,25.0
2022-08-21T08:33:03.812Z,25.0
2022-08-21T08:34:03.829Z,25.0
2022-08-21T08:35:03.842Z,25.0
2022-08-21T08:36:10.535Z,25.0
2022-08-21T08:37:04.296Z,25.0
2022-08-21T08:38:05.478Z,25.0
2022-08-21T08:39:04.282Z,25.0
2022-08-21T08:40:05.490Z,25.0
2022-08-21T08:41:04.338Z,25.0
2022-08-21T08:42:27.262Z,25.1
2022-08-21T08:43:04.297Z,25.0
2022-08-21T08:44:04.338Z,25.0
2022-08-21T08:45:04.261Z,25.0
2022-08-21T08:46:04.254Z,25.1
2022-08-21T08:47:04.262Z,25.1
2022-08-21T08:48:04.253Z,25.1
2022-08-21T08:49:04.368Z,25.1
2022-08-21T08:50:04.268Z,25.1
2022-08-21T08:51:04.276Z,25.1
2022-08-21T08:52:04.258Z,25.1
2022-08-21T08:53:04.362Z,25.1
2022-08-21T08:54:04.263Z,25.1
2022-08-21T08:55:04.408Z,25.2
2022-08-21T08:56:04.345Z,25.2
2022-08-21T08:57:04.296Z,25.3
2022-08-21T08:58:04.298Z,25.3
2022-08-21T08:59:04.263Z,25.4
2022-08-21T09:00:04.266Z,25.4
2022-08-21T09:01:04.317Z,25.4
2022-08-21T09:02:04.280Z,25.4
2022-08-21T09:03:04.265Z,25.4
2022-08-21T09:04:04.259Z,25.4
2022-08-21T09:05:04.442Z,25.4
2022-08-21T09:06:04.278Z,25.4
2022-08-21T09:07:04.262Z,25.4
2022-08-21T09:08:04.258Z,25.4
2022-08-21T09:09:04.262Z,25.4
2022-08-21T09:10:04.279Z,25.4
2022-08-21T09:11:04.275Z,25.5
2022-08-21T09:12:04.292Z,25.5
2022-08-21T09:13:04.357Z,25.5
2022-08-21T09:14:04.269Z,25.5
2022-08-21T09:15:04.288Z,25.5
2022-08-21T09:16:04.328Z,25.5
2022-08-21T09:17:04.270Z,25.6
2022-08-21T09:18:07.863Z,25.6
2022-08-21T09:19:04.430Z,25.6
2022-08-21T09:20:04.275Z,25.6
2022-08-21T09:21:05.773Z,25.7
2022-08-21T09:22:04.278Z,25.7
2022-08-21T09:23:04.269Z,25.7
2022-08-21T09:24:04.263Z,25.7
2022-08-21T09:25:04.313Z,25.7
2022-08-21T09:26:04.282Z,25.8
2022-08-21T09:27:04.276Z,25.8
2022-08-21T09:28:04.303Z,25.8
2022-08-21T09:29:04.383Z,25.8
2022-08-21T09:30:31.954Z,25.7
2022-08-21T09:31:04.573Z,25.8
2022-08-21T09:32:04.531Z,25.8
2022-08-21T09:33:04.573Z,25.8
2022-08-21T09:34:04.561Z,25.9
2022-08-21T09:35:04.568Z,25.9
2022-08-21T09:36:04.566Z,25.9
2022-08-21T09:37:04.710Z,25.9
2022-08-21T09:38:04.587Z,26.0
2022-08-21T09:39:04.578Z,26.0
2022-08-21T09:40:04.645Z,26.0
2022-08-21T09:41:04.556Z,26.0
2022-08-21T09:42:04.540Z,26.0
2022-08-21T09:43:04.577Z,26.0
2022-08-21T09:44:04.544Z,26.0
2022-08-21T09:45:04.552Z,26.0
2022-08-21T09:46:04.557Z,26.0
2022-08-21T09:47:04.547Z,26.0
2022-08-21T09:48:04.629Z,26.0
2022-08-21T09:49:04.592Z,26.0
2022-08-21T09:50:04.701Z,26.0
2022-08-21T09:51:04.551Z,26.0
2022-08-21T09:52:04.550Z,26.0
2022-08-21T09:53:04.555Z,26.1
2022-08-21T09:54:04.537Z,26.1
2022-08-21T09:55:04.550Z,26.1
2022-08-21T09:56:04.536Z,26.1
2022-08-21T09:57:04.550Z,26.2
2022-08-21T09:58:04.551Z,26.2
2022-08-21T09:59:04.802Z,26.2
2022-08-21T10:00:04.551Z,26.2
2022-08-21T10:01:04.591Z,26.2
2022-08-21T10:02:04.550Z,26.2
2022-08-21T10:03:04.572Z,26.2
2022-08-21T10:04:04.765Z,26.2
2022-08-21T10:05:04.555Z,26.3
2022-08-21T10:06:04.554Z,26.3
2022-08-21T10:07:04.545Z,26.3
2022-08-21T10:08:04.548Z,26.3
2022-08-21T10:09:04.557Z,26.4
2022-08-21T10:10:04.610Z,26.4
2022-08-21T10:11:04.558Z,26.4
2022-08-21T10:12:04.551Z,26.4
2022-08-21T10:13:04.556Z,26.4
2022-08-21T10:14:04.559Z,26.5
2022-08-21T10:15:08.394Z,26.5
2022-08-21T10:16:04.572Z,26.5
2022-08-21T10:17:04.587Z,26.5
2022-08-21T10:18:04.571Z,26.5
2022-08-21T10:19:04.605Z,26.5
2022-08-21T10:20:04.585Z,26.6
2022-08-21T10:21:04.548Z,26.6
2022-08-21T10:22:04.554Z,26.6
2022-08-21T10:23:04.556Z,26.6
2022-08-21T10:24:04.560Z,26.6
2022-08-21T10:25:04.573Z,26.6
2022-08-21T10:26:13.491Z,26.6
2022-08-21T10:27:04.606Z,26.6
2022-08-21T10:28:04.558Z,26.6
2022-08-21T10:29:04.625Z,26.6
2022-08-21T10:30:04.556Z,26.6
2022-08-21T10:31:04.551Z,26.5
2022-08-21T10:32:04.558Z,26.6
2022-08-21T10:33:04.564Z,26.5
2022-08-21T10:34:04.752Z,26.6
2022-08-21T10:35:04.554Z,26.6
2022-08-21T10:36:04.552Z,26.6
2022-08-21T10:37:10.789Z,26.6
2022-08-21T10:38:04.674Z,26.6
2022-08-21T10:39:25.876Z,26.6
2022-08-21T10:40:04.657Z,26.6
2022-08-21T10:41:04.582Z,26.6
2022-08-21T10:42:04.569Z,26.7
2022-08-21T10:43:04.599Z,26.7
2022-08-21T10:44:04.594Z,26.7
2022-08-21T10:45:04.575Z,26.6
2022-08-21T10:46:04.563Z,26.6
2022-08-21T10:47:04.565Z,26.6
2022-08-21T10:48:04.563Z,26.7
2022-08-21T10:49:04.664Z,26.7
2022-08-21T10:50:04.602Z,26.7
2022-08-21T10:51:04.900Z,26.7
2022-08-21T10:52:04.590Z,26.7
2022-08-21T10:53:04.635Z,26.7
2022-08-21T10:54:04.600Z,26.7
2022-08-21T10:55:04.566Z,26.8
2022-08-21T10:56:04.566Z,26.8
2022-08-21T10:57:04.593Z,26.8
2022-08-21T10:58:04.605Z,26.8
2022-08-21T10:59:04.582Z,26.8
2022-08-21T11:00:04.590Z,26.7
2022-08-21T11:01:04.678Z,26.8
2022-08-21T11:02:04.585Z,26.7
2022-08-21T11:03:04.575Z,26.7
2022-08-21T11:04:04.585Z,26.7
2022-08-21T11:05:04.642Z,26.7
2022-08-21T11:06:04.651Z,26.7
2022-08-21T11:07:06.590Z,26.7
2022-08-21T11:08:04.662Z,26.7
2022-08-21T11:09:04.668Z,26.7
2022-08-21T11:10:05.066Z,26.7
2022-08-21T11:11:04.605Z,26.7
2022-08-21T11:12:11.385Z,26.7
2022-08-21T11:13:04.609Z,26.7
2022-08-21T11:14:04.599Z,26.7
2022-08-21T11:15:04.632Z,26.6
2022-08-21T11:16:04.627Z,26.5
2022-08-21T11:17:04.641Z,26.5
2022-08-21T11:18:04.650Z,26.6
2022-08-21T11:19:04.658Z,26.6
2022-08-21T11:20:04.590Z,26.6
2022-08-21T11:21:04.632Z,26.7
2022-08-21T11:22:04.624Z,26.7
2022-08-21T11:23:04.945Z,26.7
2022-08-21T11:24:04.659Z,26.7
2022-08-21T11:25:04.632Z,26.7
2022-08-21T11:26:04.647Z,26.7
2022-08-21T11:27:04.643Z,26.7
2022-08-21T11:28:04.643Z,26.6
2022-08-21T11:29:06.043Z,26.7
2022-08-21T11:30:04.874Z,26.7
2022-08-21T11:31:04.572Z,26.7
2022-08-21T11:32:04.963Z,26.7
2022-08-21T11:33:04.650Z,26.7
2022-08-21T11:34:04.652Z,26.8
2022-08-21T11:35:04.705Z,26.8
2022-08-21T11:36:04.653Z,26.8
2022-08-21T11:37:04.669Z,26.8
2022-08-21T11:38:04.887Z,26.8
2022-08-21T11:39:04.640Z,26.9
2022-08-21T11:40:04.732Z,26.9
2022-08-21T11:41:04.671Z,26.9
2022-08-21T11:42:08.744Z,26.9
2022-08-21T11:43:04.620Z,26.9
2022-08-21T11:44:04.575Z,26.9
2022-08-21T11:45:04.582Z,26.9
2022-08-21T11:46:04.588Z,26.9
2022-08-21T11:47:04.575Z,26.9
2022-08-21T11:48:04.577Z,26.9
2022-08-21T11:49:04.575Z,26.9
2022-08-21T11:50:04.577Z,27.0
2022-08-21T11:52:52.077Z,26.7
2022-08-21T11:53:03.700Z,26.8
2022-08-21T11:54:03.717Z,26.9
2022-08-21T11:55:03.720Z,26.9
2022-08-21T11:56:03.720Z,26.9
2022-08-21T11:57:04.151Z,26.9
2022-08-21T11:58:03.701Z,26.9
2022-08-21T11:59:03.760Z,26.9
2022-08-21T12:00:03.695Z,26.9
2022-08-21T12:01:03.713Z,26.9
2022-08-21T12:02:03.771Z,26.9
2022-08-21T12:03:03.801Z,26.9
2022-08-21T12:04:04.642Z,27.0
2022-08-21T12:05:08.482Z,27.0
2022-08-21T12:06:03.928Z,27.0
2022-08-21T12:07:03.708Z,27.0
2022-08-21T12:08:03.709Z,27.0
2022-08-21T12:09:03.714Z,27.0
2022-08-21T12:10:03.713Z,27.0
2022-08-21T12:11:03.745Z,27.0
2022-08-21T12:12:03.707Z,27.0
2022-08-21T12:13:03.723Z,27.0
2022-08-21T12:14:03.723Z,27.0
2022-08-21T12:15:03.732Z,27.0
2022-08-21T12:16:03.720Z,27.0
2022-08-21T12:17:03.726Z,27.0
2022-08-21T12:18:03.713Z,27.0
2022-08-21T12:19:03.717Z,27.0
2022-08-21T12:20:03.751Z,27.0
2022-08-21T12:21:03.735Z,27.0
2022-08-21T12:22:03.714Z,27.0
2022-08-21T12:23:03.725Z,27.0
2022-08-21T12:24:03.716Z,27.1
2022-08-21T12:25:03.749Z,27.1
2022-08-21T12:26:03.723Z,27.1
2022-08-21T12:27:03.714Z,27.1
2022-08-21T12:28:03.722Z,27.1
2022-08-21T12:29:03.799Z,27.1
2022-08-21T12:30:04.673Z,27.1
2022-08-21T12:31:03.768Z,27.1
2022-08-21T12:32:03.846Z,27.1
2022-08-21T12:33:03.838Z,27.2
2022-08-21T12:34:03.792Z,27.2
2022-08-21T12:35:03.755Z,27.2
2022-08-21T12:36:03.724Z,27.2
2022-08-21T12:37:03.746Z,27.2
2022-08-21T12:38:04.613Z,27.2
2022-08-21T12:39:03.778Z,27.2
2022-08-21T12:40:03.852Z,27.2
2022-08-21T12:41:03.802Z,27.2
2022-08-21T12:42:03.825Z,27.2
2022-08-21T12:45:25.804Z,26.9
2022-08-21T12:46:04.108Z,27.1
2022-08-21T12:47:04.123Z,27.2
2022-08-21T12:48:04.063Z,27.2
2022-08-21T12:49:04.055Z,27.2
2022-08-21T12:50:04.213Z,27.3
2022-08-21T12:51:04.027Z,27.3
2022-08-21T12:52:04.061Z,27.3
2022-08-21T12:53:04.087Z,27.4
2022-08-21T12:54:04.079Z,27.3
2022-08-21T12:55:04.037Z,27.3
2022-08-21T12:56:04.041Z,27.4
2022-08-21T12:57:04.027Z,27.4
2022-08-21T12:58:04.036Z,27.4
2022-08-21T12:59:04.114Z,27.5
2022-08-21T13:00:04.362Z,27.5
2022-08-21T13:01:04.081Z,27.5
2022-08-21T13:02:04.143Z,27.5
2022-08-21T13:03:04.016Z,27.5
2022-08-21T13:04:04.466Z,27.5
2022-08-21T13:05:04.024Z,27.5
2022-08-21T13:06:04.140Z,27.6
2022-08-21T13:07:04.049Z,27.6
2022-08-21T13:08:04.059Z,27.6
2022-08-21T13:09:04.127Z,27.7
2022-08-21T13:10:04.041Z,27.6
2022-08-21T13:11:09.145Z,27.7
2022-08-21T13:12:04.018Z,27.7
2022-08-21T13:13:12.289Z,27.7
2022-08-21T13:14:05.044Z,27.7
2022-08-21T13:15:04.135Z,27.7
2022-08-21T13:16:04.030Z,27.7
2022-08-21T13:17:04.048Z,27.7
2022-08-21T13:18:04.336Z,27.7
2022-08-21T13:19:04.019Z,27.7
2022-08-21T13:20:04.034Z,27.7
2022-08-21T13:21:04.054Z,27.8
2022-08-21T13:22:30.896Z,27.8
2022-08-21T13:23:04.023Z,27.8
2022-08-21T13:24:19.444Z,27.8